Aérodrome :
LOGIN :

S'inscrire | Disclaimer

   EN    FR    IT 

 










Légende :    VFR   VFR Marginal   IFR   IFR Intensif   IFR Très Intensif
Visi : 
Plafond : 
>= 8 km
>= 3000ft
5 à 8 km
1000 à 3000 ft
1500m à 5 km
500 à 1000 ft
800 à 1500m
200 à 500 ft
< 800m
< 200 ft
Symboles :   Orages  Brouillard  Fortes neiges  Fortes précipitations  Vent > 20 kt
SIGMETs :   Divers  Orages  Givrage  Turbulence  Onde Orograph.  Cendres Volcan.







- Altitude de l'aérodrome : 162 ft
- Code IATA : BOD
- Voir les cartes d'approche


LFBD - Bordeaux / Merignac

DERNIER METAR :
  • 201830Z AUTO 32005KT 9999 OVC048 08/06 Q1016 NOSIG

METARs EXPIRÉS :
  • 201800Z AUTO 32006KT 9999 OVC042 08/06 Q1016 NOSIG
  • 201730Z AUTO 32005KT 290V030 9999 FEW018 BKN044 08/06 Q1016 TEMPO OVC007
  • 201700Z AUTO 32004KT 9999 FEW019 OVC041 08/07 Q1015 NOSIG
  • 201630Z AUTO 32003KT 280V360 9999 FEW010 SCT015 BKN020 08/07 Q1015 NOSIG
  • 201600Z AUTO 33006KT 9999 -RA FEW031 BKN041 BKN056 09/07 Q1015 TEMPO SCT015TCU BKN040

TAF TAF LFBD
Valide du 20 à 18h jusqu'au 22 à 00h UTC


201700Z 2018/2124 35008KT 9999 BKN040 TX08/2018Z TN03/2106Z
BECMG 2023/2101 BKN015
TEMPO 2101/2106 OVC007
BECMG 2113/2115 SCT025
PROB30
TEMPO 2121/2124 4000 MIFG NSC
ATIS : +33 5 57 92 81 04
Pas de NOTAMs connus pour ce terrain.



MET'MAP, la Météo Aéronautique d'un coup d'oeil ! - Copyright ORBIFLY Décembre 2007 - Disclaimer

ORBIFLY MET'MAP TEAM :

Programmation & Développement : Alexandra Zaïnal
Conception & Développement : Baudouin d'Aumeries
Co-Programmation & Développement : Marc-Olivier Méhu
Soutien technique & logistique : Manuel Goepfert

Contact : metmap@orbifly.com




SOURCES & CREDITS :

   NOAA